AirNav   Everest Fuels
 
 493 users online  

30PN Pittsburgh Children's Hospital Heliport
Pittsburgh, Pennsylvania, USA

GOING TO PITTSBURGH?


FAA INFORMATION EFFECTIVE 07 NOVEMBER 2019

Location

FAA Identifier: 30PN
Lat/Long: 40-27-59.7900N 079-57-09.6100W
40-27.996500N 079-57.160167W
40.4666083,-79.9526694
(estimated)
Elevation: 1088 ft. / 332 m (estimated)
Variation: 09W (2010)
From city: 1 mile SW of PITTSBURGH, PA
Time zone: UTC -5 (UTC -4 during Daylight Saving Time)
Zip code: 15223

Heliport Operations

Heliport use: Private use. Permission required prior to landing
Activation date: 04/2009
Control tower: no
ARTCC: CLEVELAND CENTER
FSS: ALTOONA FLIGHT SERVICE STATION
NOTAMs facility: FDC (NOTAM-D service not available)
Attendance: UNATNDD
Wind indicator: yes
Segmented circle: no

Heliport Communications

PITTSBURGH APPROACH: 119.35
PITTSBURGH DEPARTURE: 119.35
WX AWOS-A at 42PN (2.4 nm W): PHONE 412-442-2213
WX ASOS at AGC (7 nm S): PHONE 412-466-8968
WX ASOS at PIT (13 nm W): PHONE 412-472-0145
WX AWOS-3 at FWQ (16 nm S): 118.475 (724-379-5815)
WX AWOS-3PT at BTP (19 nm N): 121.450 (724-586-6434)

Nearby radio navigation aids

VOR radial/distance  VOR name  Freq  Var
AGCr029/12.0ALLEGHENY VOR/DME110.0009W
EWCr159/24.5ELLWOOD CITY VOR/DME115.8008W
HLGr073/30.8WHEELING VOR/DME112.2007W

 
NDB name  Hdg/Dist  Freq  Var  ID
CASTLE157/39.527209WUCP ..- -.-. .--.

Heliport Services

Runway Information

Helipad H1

Dimensions: 45 x 45 ft. / 14 x 14 m
Surface: ROOFTOP, in fair condition
Runway edge lights: PERI
Latitude: 40-27.996500N
Longitude: 079-57.160167W
Elevation: 1088.0 ft.
Traffic pattern: leftleft
Markings: none, in fair condition

Heliport Ownership and Management from official FAA records

Ownership: Privately-owned
Owner: CHILDREN'S HOSPITAL OF PITTSBURGH
UPMC, 4401 PENN AVE
PITTSBURGH, PA 15201
Phone 412-692-5325
Manager: JAMES MAJSAK
4401 PENN AVENUE
PITTSBURGH, PA 15224
Phone 412-692-7252
(412) 692-5191

Additional Remarks

A52-H1 30 FT BLDG 49 FT N OF PAD.
FOR CD CTC PITTSBURGH APCH AT 412-472-5591

Instrument Procedures

There are no published instrument procedures at 30PN.

Some nearby airports with instrument procedures:

KAGC - Allegheny County Airport (7 nm S)
KPIT - Pittsburgh International Airport (13 nm W)
G05 - Finleyville Airpark (14 nm S)
KFWQ - Rostraver Airport (16 nm S)
KBTP - Pittsburgh/Butler Regional Airport (19 nm N)
 
Loc | Ops | Rwys | IFR | FBO | Links
Com | Nav | Svcs | Stats | Notes
Aerial photo
No photo
 
Sectional chart

 
Airport distance calculator
Flying to Pittsburgh Children's Hospital Heliport? Find the distance to fly.

From to 30PN

Sunrise and sunset
Times for 17-Nov-2019
 Local
(UTC-5)
 Zulu
(UTC)
Morning civil twilight06:4011:40
Sunrise07:0912:09
Sunset17:0022:00
Evening civil twilight17:3022:30

Current date and time
Zulu (UTC)  17-Nov-2019 11:24:03
Local (UTC-5)  17-Nov-2019 06:24:03
 
METAR
KAGC 
7nm S 
171053Z 12006KT 10SM CLR M02/M08 A3016 RMK AO2 SLP232 T10171083
KPIT 
14nm W 
171051Z 10005KT 10SM CLR M03/M12 A3017 RMK AO2 SLP236 T10281117
KP53 
16nm S 
171056Z AUTO 18009G17KT 02/M02 A3003 RMK AO1 SLP176 T00171017
KBTP 
18nm N 
171056Z AUTO 10007KT 10SM CLR M03/M11 A3019 RMK AO2 SLP244 T10281106 FZRANO
TAF
KAGC 
7nm S 
170534Z 1706/1806 10006KT P6SM SKC
KPIT 
14nm W 
170909Z 1709/1812 09006KT P6SM SKC= TAF AMD KPDX 170910Z 1709/1806 10004KT P6SM VCSH OVC060 FM171800 15008KT P6SM -RA SCT025 OVC045 FM172100 17008KT 6SM -RA BR SCT015 OVC030 FM180100 VRB03KT P6SM SCT025 OVC040
NOTAMs
Click for the latest NOTAMs
NOTAMs are issued by the DoD/FAA and will open in a separate window not controlled by AirNav.

 

 
 

Would you like to see your business listed on this page?

 If your business provides an interesting product or service to pilots, flight crews, aircraft, or users of the Pittsburgh Children's Hospital Heliport, you should consider listing it here.  To start the listing process, click on the button below
 
Add a business
 

Other Pages about Pittsburgh Children's Hospital Heliport

Update a link
 
Copyright © AirNav, LLC. All rights reserved. Privacy Policy  Contact